sensor_id;sensor_type;location;lat;lon;timestamp;P1;P2;P0
64138;PMS5003;50435;43.700;-79.318;2023-08-06T00:02:14;14;13;
64138;PMS5003;50435;43.700;-79.318;2023-08-06T00:04:42;13;13;
64138;PMS5003;50435;43.700;-79.318;2023-08-06T00:07:09;13;11;
64138;PMS5003;50435;43.700;-79.318;2023-08-06T00:09:37;14;14;
64138;PMS5003;50435;43.700;-79.318;2023-08-06T00:12:06;17;16;
64138;PMS5003;50435;43.700;-79.318;2023-08-06T00:14:34;14;13;
64138;PMS5003;50435;43.700;-79.318;2023-08-06T00:17:01;20;16;
64138;PMS5003;50435;43.700;-79.318;2023-08-06T00:19:29;20;17;
64138;PMS5003;50435;43.700;-79.318;2023-08-06T00:21:56;13;13;
64138;PMS5003;50435;43.700;-79.318;2023-08-06T00:24:24;15;15;
64138;PMS5003;50435;43.700;-79.318;2023-08-06T00:26:51;11;11;
64138;PMS5003;50435;43.700;-79.318;2023-08-06T00:29:19;15;13;
64138;PMS5003;50435;43.700;-79.318;2023-08-06T00:31:46;14;13;
64138;PMS5003;50435;43.700;-79.318;2023-08-06T00:34:14;12;12;
64138;PMS5003;50435;43.700;-79.318;2023-08-06T00:36:41;15;14;
64138;PMS5003;50435;43.700;-79.318;2023-08-06T00:39:09;13;13;
64138;PMS5003;50435;43.700;-79.318;2023-08-06T00:41:36;13;13;
64138;PMS5003;50435;43.700;-79.318;2023-08-06T00:44:04;16;13;
64138;PMS5003;50435;43.700;-79.318;2023-08-06T00:46:32;13;12;
64138;PMS5003;50435;43.700;-79.318;2023-08-06T00:49:00;14;14;
64138;PMS5003;50435;43.700;-79.318;2023-08-06T00:51:27;15;15;
64138;PMS5003;50435;43.700;-79.318;2023-08-06T00:53:55;18;14;
64138;PMS5003;50435;43.700;-79.318;2023-08-06T00:56:22;17;16;
64138;PMS5003;50435;43.700;-79.318;2023-08-06T00:58:51;15;12;
64138;PMS5003;50435;43.700;-79.318;2023-08-06T01:01:19;14;14;
64138;PMS5003;50435;43.700;-79.318;2023-08-06T01:03:47;17;16;
64138;PMS5003;50435;43.700;-79.318;2023-08-06T01:06:14;13;13;
64138;PMS5003;50435;43.700;-79.318;2023-08-06T01:08:48;14;12;
64138;PMS5003;50435;43.700;-79.318;2023-08-06T01:11:26;16;16;
64138;PMS5003;50435;43.700;-79.318;2023-08-06T01:13:59;13;13;
64138;PMS5003;50435;43.700;-79.318;2023-08-06T01:16:29;17;17;
64138;PMS5003;50435;43.700;-79.318;2023-08-06T01:18:59;17;17;
64138;PMS5003;50435;43.700;-79.318;2023-08-06T01:21:26;15;15;
64138;PMS5003;50435;43.700;-79.318;2023-08-06T01:23:54;20;15;
64138;PMS5003;50435;43.700;-79.318;2023-08-06T01:26:23;17;17;
64138;PMS5003;50435;43.700;-79.318;2023-08-06T01:28:59;16;15;
64138;PMS5003;50435;43.700;-79.318;2023-08-06T01:31:35;12;12;
64138;PMS5003;50435;43.700;-79.318;2023-08-06T01:34:06;18;17;
64138;PMS5003;50435;43.700;-79.318;2023-08-06T01:36:37;15;15;
64138;PMS5003;50435;43.700;-79.318;2023-08-06T01:39:05;19;17;
64138;PMS5003;50435;43.700;-79.318;2023-08-06T01:41:32;23;20;
64138;PMS5003;50435;43.700;-79.318;2023-08-06T01:44:01;21;18;
64138;PMS5003;50435;43.700;-79.318;2023-08-06T01:46:28;20;19;
64138;PMS5003;50435;43.700;-79.318;2023-08-06T01:48:56;19;19;
64138;PMS5003;50435;43.700;-79.318;2023-08-06T01:51:23;20;17;
64138;PMS5003;50435;43.700;-79.318;2023-08-06T01:53:51;22;22;
64138;PMS5003;50435;43.700;-79.318;2023-08-06T01:56:19;24;24;
64138;PMS5003;50435;43.700;-79.318;2023-08-06T01:58:46;27;24;
64138;PMS5003;50435;43.700;-79.318;2023-08-06T02:01:14;27;24;
64138;PMS5003;50435;43.700;-79.318;2023-08-06T02:03:42;21;21;
64138;PMS5003;50435;43.700;-79.318;2023-08-06T02:06:09;21;20;
64138;PMS5003;50435;43.700;-79.318;2023-08-06T02:08:37;31;27;
64138;PMS5003;50435;43.700;-79.318;2023-08-06T02:11:04;23;22;
64138;PMS5003;50435;43.700;-79.318;2023-08-06T02:13:32;28;23;
64138;PMS5003;50435;43.700;-79.318;2023-08-06T02:15:59;26;25;
64138;PMS5003;50435;43.700;-79.318;2023-08-06T02:18:27;37;34;
64138;PMS5003;50435;43.700;-79.318;2023-08-06T02:20:55;34;32;
64138;PMS5003;50435;43.700;-79.318;2023-08-06T02:23:23;43;40;
64138;PMS5003;50435;43.700;-79.318;2023-08-06T02:25:56;45;44;
64138;PMS5003;50435;43.700;-79.318;2023-08-06T02:28:24;55;54;
64138;PMS5003;50435;43.700;-79.318;2023-08-06T02:30:52;58;54;
64138;PMS5003;50435;43.700;-79.318;2023-08-06T02:33:19;55;54;
64138;PMS5003;50435;43.700;-79.318;2023-08-06T02:35:47;62;60;
64138;PMS5003;50435;43.700;-79.318;2023-08-06T02:38:15;59;57;
64138;PMS5003;50435;43.700;-79.318;2023-08-06T02:40:43;58;54;
64138;PMS5003;50435;43.700;-79.318;2023-08-06T02:43:11;58;54;
64138;PMS5003;50435;43.700;-79.318;2023-08-06T02:45:39;50;49;
64138;PMS5003;50435;43.700;-79.318;2023-08-06T02:48:08;52;49;
64138;PMS5003;50435;43.700;-79.318;2023-08-06T02:50:38;54;52;
64138;PMS5003;50435;43.700;-79.318;2023-08-06T02:53:06;54;51;
64138;PMS5003;50435;43.700;-79.318;2023-08-06T02:55:34;58;49;
64138;PMS5003;50435;43.700;-79.318;2023-08-06T02:58:02;53;52;
64138;PMS5003;50435;43.700;-79.318;2023-08-06T03:00:30;56;52;
64138;PMS5003;50435;43.700;-79.318;2023-08-06T03:02:58;50;48;
64138;PMS5003;50435;43.700;-79.318;2023-08-06T03:05:25;53;49;
64138;PMS5003;50435;43.700;-79.318;2023-08-06T03:07:52;49;47;
64138;PMS5003;50435;43.700;-79.318;2023-08-06T03:10:19;47;46;
64138;PMS5003;50435;43.700;-79.318;2023-08-06T03:12:47;43;42;
64138;PMS5003;50435;43.700;-79.318;2023-08-06T03:15:14;43;43;
64138;PMS5003;50435;43.700;-79.318;2023-08-06T03:17:42;50;50;
64138;PMS5003;50435;43.700;-79.318;2023-08-06T03:20:10;44;44;
64138;PMS5003;50435;43.700;-79.318;2023-08-06T03:22:37;51;50;
64138;PMS5003;50435;43.700;-79.318;2023-08-06T03:25:05;43;43;
64138;PMS5003;50435;43.700;-79.318;2023-08-06T03:27:33;55;53;
64138;PMS5003;50435;43.700;-79.318;2023-08-06T03:30:00;54;54;
64138;PMS5003;50435;43.700;-79.318;2023-08-06T03:32:27;55;51;
64138;PMS5003;50435;43.700;-79.318;2023-08-06T03:34:55;49;49;
64138;PMS5003;50435;43.700;-79.318;2023-08-06T03:37:23;53;49;
64138;PMS5003;50435;43.700;-79.318;2023-08-06T03:39:50;57;56;
64138;PMS5003;50435;43.700;-79.318;2023-08-06T03:42:17;46;45;
64138;PMS5003;50435;43.700;-79.318;2023-08-06T03:44:44;49;46;
64138;PMS5003;50435;43.700;-79.318;2023-08-06T03:47:12;52;50;
64138;PMS5003;50435;43.700;-79.318;2023-08-06T03:49:40;50;45;
64138;PMS5003;50435;43.700;-79.318;2023-08-06T03:52:07;46;45;
64138;PMS5003;50435;43.700;-79.318;2023-08-06T03:54:35;49;48;
64138;PMS5003;50435;43.700;-79.318;2023-08-06T03:57:03;59;54;
64138;PMS5003;50435;43.700;-79.318;2023-08-06T03:59:31;48;44;
64138;PMS5003;50435;43.700;-79.318;2023-08-06T04:01:58;47;46;
64138;PMS5003;50435;43.700;-79.318;2023-08-06T04:04:26;53;53;
64138;PMS5003;50435;43.700;-79.318;2023-08-06T04:06:53;46;46;
64138;PMS5003;50435;43.700;-79.318;2023-08-06T04:09:21;52;48;
64138;PMS5003;50435;43.700;-79.318;2023-08-06T04:11:48;44;41;
64138;PMS5003;50435;43.700;-79.318;2023-08-06T04:14:15;39;37;
64138;PMS5003;50435;43.700;-79.318;2023-08-06T04:16:43;43;41;
64138;PMS5003;50435;43.700;-79.318;2023-08-06T04:19:10;39;34;
64138;PMS5003;50435;43.700;-79.318;2023-08-06T04:21:38;41;39;
64138;PMS5003;50435;43.700;-79.318;2023-08-06T04:24:06;39;38;
64138;PMS5003;50435;43.700;-79.318;2023-08-06T04:26:34;49;47;
64138;PMS5003;50435;43.700;-79.318;2023-08-06T04:29:01;49;44;
64138;PMS5003;50435;43.700;-79.318;2023-08-06T04:31:29;41;40;
64138;PMS5003;50435;43.700;-79.318;2023-08-06T04:33:56;42;41;
64138;PMS5003;50435;43.700;-79.318;2023-08-06T04:36:24;46;43;
64138;PMS5003;50435;43.700;-79.318;2023-08-06T04:38:51;40;39;
64138;PMS5003;50435;43.700;-79.318;2023-08-06T04:41:18;36;35;
64138;PMS5003;50435;43.700;-79.318;2023-08-06T04:43:46;38;35;
64138;PMS5003;50435;43.700;-79.318;2023-08-06T04:46:14;35;31;
64138;PMS5003;50435;43.700;-79.318;2023-08-06T04:48:41;33;32;
64138;PMS5003;50435;43.700;-79.318;2023-08-06T04:51:09;32;32;
64138;PMS5003;50435;43.700;-79.318;2023-08-06T04:53:36;36;31;
64138;PMS5003;50435;43.700;-79.318;2023-08-06T04:56:04;30;30;
64138;PMS5003;50435;43.700;-79.318;2023-08-06T04:58:31;24;24;
64138;PMS5003;50435;43.700;-79.318;2023-08-06T05:00:58;24;22;
64138;PMS5003;50435;43.700;-79.318;2023-08-06T05:03:26;25;25;
64138;PMS5003;50435;43.700;-79.318;2023-08-06T05:05:53;29;26;
64138;PMS5003;50435;43.700;-79.318;2023-08-06T05:08:20;30;27;
64138;PMS5003;50435;43.700;-79.318;2023-08-06T05:10:47;24;22;
64138;PMS5003;50435;43.700;-79.318;2023-08-06T05:13:15;24;23;
64138;PMS5003;50435;43.700;-79.318;2023-08-06T05:15:42;24;22;
64138;PMS5003;50435;43.700;-79.318;2023-08-06T05:18:10;22;22;
64138;PMS5003;50435;43.700;-79.318;2023-08-06T05:20:37;21;20;
64138;PMS5003;50435;43.700;-79.318;2023-08-06T05:23:06;22;22;
64138;PMS5003;50435;43.700;-79.318;2023-08-06T05:25:34;21;21;
64138;PMS5003;50435;43.700;-79.318;2023-08-06T05:28:02;19;18;
64138;PMS5003;50435;43.700;-79.318;2023-08-06T05:30:29;22;20;
64138;PMS5003;50435;43.700;-79.318;2023-08-06T05:32:57;20;20;
64138;PMS5003;50435;43.700;-79.318;2023-08-06T05:35:24;18;17;
64138;PMS5003;50435;43.700;-79.318;2023-08-06T05:37:52;22;20;
64138;PMS5003;50435;43.700;-79.318;2023-08-06T05:40:19;18;17;
64138;PMS5003;50435;43.700;-79.318;2023-08-06T05:42:47;19;17;
64138;PMS5003;50435;43.700;-79.318;2023-08-06T05:45:14;21;17;
64138;PMS5003;50435;43.700;-79.318;2023-08-06T05:47:42;23;18;
64138;PMS5003;50435;43.700;-79.318;2023-08-06T05:50:09;16;16;
64138;PMS5003;50435;43.700;-79.318;2023-08-06T05:52:37;16;15;
64138;PMS5003;50435;43.700;-79.318;2023-08-06T05:55:06;14;13;
64138;PMS5003;50435;43.700;-79.318;2023-08-06T05:57:33;18;15;
64138;PMS5003;50435;43.700;-79.318;2023-08-06T06:00:01;14;14;
64138;PMS5003;50435;43.700;-79.318;2023-08-06T06:02:29;11;11;
64138;PMS5003;50435;43.700;-79.318;2023-08-06T06:04:56;19;19;
64138;PMS5003;50435;43.700;-79.318;2023-08-06T06:07:23;18;16;
64138;PMS5003;50435;43.700;-79.318;2023-08-06T06:09:50;15;13;
64138;PMS5003;50435;43.700;-79.318;2023-08-06T06:12:18;18;13;
64138;PMS5003;50435;43.700;-79.318;2023-08-06T06:14:46;15;15;
64138;PMS5003;50435;43.700;-79.318;2023-08-06T06:17:13;18;16;
64138;PMS5003;50435;43.700;-79.318;2023-08-06T06:19:41;16;15;
64138;PMS5003;50435;43.700;-79.318;2023-08-06T06:22:09;20;16;
64138;PMS5003;50435;43.700;-79.318;2023-08-06T06:24:36;16;12;
64138;PMS5003;50435;43.700;-79.318;2023-08-06T06:27:03;17;17;
64138;PMS5003;50435;43.700;-79.318;2023-08-06T06:29:31;20;18;
64138;PMS5003;50435;43.700;-79.318;2023-08-06T06:31:59;15;14;
64138;PMS5003;50435;43.700;-79.318;2023-08-06T06:34:26;14;14;
64138;PMS5003;50435;43.700;-79.318;2023-08-06T06:36:55;15;14;
64138;PMS5003;50435;43.700;-79.318;2023-08-06T06:39:22;18;16;
64138;PMS5003;50435;43.700;-79.318;2023-08-06T06:41:50;14;14;
64138;PMS5003;50435;43.700;-79.318;2023-08-06T06:44:18;12;12;
64138;PMS5003;50435;43.700;-79.318;2023-08-06T06:46:45;17;15;
64138;PMS5003;50435;43.700;-79.318;2023-08-06T06:49:12;16;15;
64138;PMS5003;50435;43.700;-79.318;2023-08-06T06:51:40;14;13;
64138;PMS5003;50435;43.700;-79.318;2023-08-06T06:54:07;17;17;
64138;PMS5003;50435;43.700;-79.318;2023-08-06T06:56:35;16;16;
64138;PMS5003;50435;43.700;-79.318;2023-08-06T06:59:02;14;14;
64138;PMS5003;50435;43.700;-79.318;2023-08-06T07:01:30;17;14;
64138;PMS5003;50435;43.700;-79.318;2023-08-06T07:03:57;14;14;
64138;PMS5003;50435;43.700;-79.318;2023-08-06T07:06:24;17;15;
64138;PMS5003;50435;43.700;-79.318;2023-08-06T07:08:52;16;16;
64138;PMS5003;50435;43.700;-79.318;2023-08-06T07:11:19;16;16;
64138;PMS5003;50435;43.700;-79.318;2023-08-06T07:13:47;17;14;
64138;PMS5003;50435;43.700;-79.318;2023-08-06T07:16:16;14;14;
64138;PMS5003;50435;43.700;-79.318;2023-08-06T07:18:43;19;17;
64138;PMS5003;50435;43.700;-79.318;2023-08-06T07:21:11;16;13;
64138;PMS5003;50435;43.700;-79.318;2023-08-06T07:23:38;15;15;
64138;PMS5003;50435;43.700;-79.318;2023-08-06T07:26:05;17;15;
64138;PMS5003;50435;43.700;-79.318;2023-08-06T07:28:33;20;18;
64138;PMS5003;50435;43.700;-79.318;2023-08-06T07:31:02;17;15;
64138;PMS5003;50435;43.700;-79.318;2023-08-06T07:33:30;16;16;
64138;PMS5003;50435;43.700;-79.318;2023-08-06T07:35:58;13;13;
64138;PMS5003;50435;43.700;-79.318;2023-08-06T07:38:25;18;15;
64138;PMS5003;50435;43.700;-79.318;2023-08-06T07:40:53;17;14;
64138;PMS5003;50435;43.700;-79.318;2023-08-06T07:43:20;19;16;
64138;PMS5003;50435;43.700;-79.318;2023-08-06T07:45:48;18;17;
64138;PMS5003;50435;43.700;-79.318;2023-08-06T07:48:15;20;16;
64138;PMS5003;50435;43.700;-79.318;2023-08-06T07:50:42;15;15;
64138;PMS5003;50435;43.700;-79.318;2023-08-06T07:53:09;13;13;
64138;PMS5003;50435;43.700;-79.318;2023-08-06T07:55:37;15;13;
64138;PMS5003;50435;43.700;-79.318;2023-08-06T07:58:04;13;12;
64138;PMS5003;50435;43.700;-79.318;2023-08-06T08:00:32;13;13;
64138;PMS5003;50435;43.700;-79.318;2023-08-06T08:02:59;20;17;
64138;PMS5003;50435;43.700;-79.318;2023-08-06T08:05:27;16;13;
64138;PMS5003;50435;43.700;-79.318;2023-08-06T08:07:55;18;17;
64138;PMS5003;50435;43.700;-79.318;2023-08-06T08:10:22;19;16;
64138;PMS5003;50435;43.700;-79.318;2023-08-06T08:12:49;17;16;
64138;PMS5003;50435;43.700;-79.318;2023-08-06T08:15:17;16;14;
64138;PMS5003;50435;43.700;-79.318;2023-08-06T08:17:44;18;17;
64138;PMS5003;50435;43.700;-79.318;2023-08-06T08:20:11;18;15;
64138;PMS5003;50435;43.700;-79.318;2023-08-06T08:22:39;20;17;
64138;PMS5003;50435;43.700;-79.318;2023-08-06T08:25:07;14;14;
64138;PMS5003;50435;43.700;-79.318;2023-08-06T08:27:34;14;14;
64138;PMS5003;50435;43.700;-79.318;2023-08-06T08:30:02;19;14;
64138;PMS5003;50435;43.700;-79.318;2023-08-06T08:32:29;17;16;
64138;PMS5003;50435;43.700;-79.318;2023-08-06T08:34:57;16;14;
64138;PMS5003;50435;43.700;-79.318;2023-08-06T08:37:24;18;18;
64138;PMS5003;50435;43.700;-79.318;2023-08-06T08:39:52;17;16;
64138;PMS5003;50435;43.700;-79.318;2023-08-06T08:42:19;15;12;
64138;PMS5003;50435;43.700;-79.318;2023-08-06T08:44:47;14;13;
64138;PMS5003;50435;43.700;-79.318;2023-08-06T08:47:15;15;14;
64138;PMS5003;50435;43.700;-79.318;2023-08-06T08:49:43;20;16;
64138;PMS5003;50435;43.700;-79.318;2023-08-06T08:52:11;17;17;
64138;PMS5003;50435;43.700;-79.318;2023-08-06T08:54:44;20;18;
64138;PMS5003;50435;43.700;-79.318;2023-08-06T08:57:12;18;17;
64138;PMS5003;50435;43.700;-79.318;2023-08-06T08:59:39;19;17;
64138;PMS5003;50435;43.700;-79.318;2023-08-06T09:02:06;17;17;
64138;PMS5003;50435;43.700;-79.318;2023-08-06T09:04:37;17;16;
64138;PMS5003;50435;43.700;-79.318;2023-08-06T09:07:05;18;17;
64138;PMS5003;50435;43.700;-79.318;2023-08-06T09:09:35;17;15;
64138;PMS5003;50435;43.700;-79.318;2023-08-06T09:12:09;18;16;
64138;PMS5003;50435;43.700;-79.318;2023-08-06T09:14:40;18;14;
64138;PMS5003;50435;43.700;-79.318;2023-08-06T09:17:08;13;11;
64138;PMS5003;50435;43.700;-79.318;2023-08-06T09:19:36;16;16;
64138;PMS5003;50435;43.700;-79.318;2023-08-06T09:22:04;14;13;
64138;PMS5003;50435;43.700;-79.318;2023-08-06T09:24:32;16;15;
64138;PMS5003;50435;43.700;-79.318;2023-08-06T09:27:00;17;17;
64138;PMS5003;50435;43.700;-79.318;2023-08-06T09:29:30;17;16;
64138;PMS5003;50435;43.700;-79.318;2023-08-06T09:31:57;18;18;
64138;PMS5003;50435;43.700;-79.318;2023-08-06T09:34:25;15;15;
64138;PMS5003;50435;43.700;-79.318;2023-08-06T09:36:54;12;12;
64138;PMS5003;50435;43.700;-79.318;2023-08-06T09:39:21;18;15;
64138;PMS5003;50435;43.700;-79.318;2023-08-06T09:41:55;17;14;
64138;PMS5003;50435;43.700;-79.318;2023-08-06T09:44:24;14;14;
64138;PMS5003;50435;43.700;-79.318;2023-08-06T09:46:54;15;15;
64138;PMS5003;50435;43.700;-79.318;2023-08-06T09:49:25;16;15;
64138;PMS5003;50435;43.700;-79.318;2023-08-06T09:51:54;15;15;
64138;PMS5003;50435;43.700;-79.318;2023-08-06T09:54:22;14;14;
64138;PMS5003;50435;43.700;-79.318;2023-08-06T09:56:49;14;13;
64138;PMS5003;50435;43.700;-79.318;2023-08-06T09:59:17;15;15;
64138;PMS5003;50435;43.700;-79.318;2023-08-06T10:01:45;18;17;
64138;PMS5003;50435;43.700;-79.318;2023-08-06T10:04:13;14;14;
64138;PMS5003;50435;43.700;-79.318;2023-08-06T10:06:42;16;15;
64138;PMS5003;50435;43.700;-79.318;2023-08-06T10:09:12;12;12;
64138;PMS5003;50435;43.700;-79.318;2023-08-06T10:11:40;17;17;
64138;PMS5003;50435;43.700;-79.318;2023-08-06T10:14:11;13;13;
64138;PMS5003;50435;43.700;-79.318;2023-08-06T10:16:42;21;18;
64138;PMS5003;50435;43.700;-79.318;2023-08-06T10:19:10;18;14;
64138;PMS5003;50435;43.700;-79.318;2023-08-06T10:21:40;14;14;
64138;PMS5003;50435;43.700;-79.318;2023-08-06T10:24:07;19;17;
64138;PMS5003;50435;43.700;-79.318;2023-08-06T10:26:35;15;15;
64138;PMS5003;50435;43.700;-79.318;2023-08-06T10:29:21;15;15;
64138;PMS5003;50435;43.700;-79.318;2023-08-06T10:32:02;14;14;
64138;PMS5003;50435;43.700;-79.318;2023-08-06T10:34:51;14;13;
64138;PMS5003;50435;43.700;-79.318;2023-08-06T10:37:20;19;18;
64138;PMS5003;50435;43.700;-79.318;2023-08-06T10:39:48;17;17;
64138;PMS5003;50435;43.700;-79.318;2023-08-06T10:42:20;20;19;
64138;PMS5003;50435;43.700;-79.318;2023-08-06T10:45:20;15;14;
64138;PMS5003;50435;43.700;-79.318;2023-08-06T10:47:48;21;16;
64138;PMS5003;50435;43.700;-79.318;2023-08-06T10:50:16;13;13;
64138;PMS5003;50435;43.700;-79.318;2023-08-06T10:52:44;17;17;
64138;PMS5003;50435;43.700;-79.318;2023-08-06T10:55:12;16;14;
64138;PMS5003;50435;43.700;-79.318;2023-08-06T10:57:40;21;18;
64138;PMS5003;50435;43.700;-79.318;2023-08-06T11:00:08;15;15;
64138;PMS5003;50435;43.700;-79.318;2023-08-06T11:02:36;14;14;
64138;PMS5003;50435;43.700;-79.318;2023-08-06T11:05:05;17;15;
64138;PMS5003;50435;43.700;-79.318;2023-08-06T11:07:34;17;14;
64138;PMS5003;50435;43.700;-79.318;2023-08-06T11:10:02;14;14;
64138;PMS5003;50435;43.700;-79.318;2023-08-06T11:12:29;14;14;
64138;PMS5003;50435;43.700;-79.318;2023-08-06T11:14:57;16;15;
64138;PMS5003;50435;43.700;-79.318;2023-08-06T11:17:25;15;14;
64138;PMS5003;50435;43.700;-79.318;2023-08-06T11:19:53;14;14;
64138;PMS5003;50435;43.700;-79.318;2023-08-06T11:22:21;17;15;
64138;PMS5003;50435;43.700;-79.318;2023-08-06T11:24:48;15;14;
64138;PMS5003;50435;43.700;-79.318;2023-08-06T11:27:16;16;16;
64138;PMS5003;50435;43.700;-79.318;2023-08-06T11:29:44;13;13;
64138;PMS5003;50435;43.700;-79.318;2023-08-06T11:32:12;17;15;
64138;PMS5003;50435;43.700;-79.318;2023-08-06T11:34:40;20;17;
64138;PMS5003;50435;43.700;-79.318;2023-08-06T11:37:09;17;15;
64138;PMS5003;50435;43.700;-79.318;2023-08-06T11:39:37;18;15;
64138;PMS5003;50435;43.700;-79.318;2023-08-06T11:42:05;14;14;
64138;PMS5003;50435;43.700;-79.318;2023-08-06T11:44:34;13;13;
64138;PMS5003;50435;43.700;-79.318;2023-08-06T11:47:03;15;12;
64138;PMS5003;50435;43.700;-79.318;2023-08-06T11:49:39;16;13;
64138;PMS5003;50435;43.700;-79.318;2023-08-06T11:52:09;14;14;
64138;PMS5003;50435;43.700;-79.318;2023-08-06T11:54:38;17;14;
64138;PMS5003;50435;43.700;-79.318;2023-08-06T11:57:05;9;9;
64138;PMS5003;50435;43.700;-79.318;2023-08-06T11:59:33;16;16;
64138;PMS5003;50435;43.700;-79.318;2023-08-06T12:02:01;11;11;
64138;PMS5003;50435;43.700;-79.318;2023-08-06T12:04:29;15;14;
64138;PMS5003;50435;43.700;-79.318;2023-08-06T12:07:04;11;11;
64138;PMS5003;50435;43.700;-79.318;2023-08-06T12:09:32;18;15;
64138;PMS5003;50435;43.700;-79.318;2023-08-06T12:11:59;12;12;
64138;PMS5003;50435;43.700;-79.318;2023-08-06T12:14:27;13;13;
64138;PMS5003;50435;43.700;-79.318;2023-08-06T12:16:55;16;13;
64138;PMS5003;50435;43.700;-79.318;2023-08-06T12:19:22;12;12;
64138;PMS5003;50435;43.700;-79.318;2023-08-06T12:21:50;13;12;
64138;PMS5003;50435;43.700;-79.318;2023-08-06T12:24:18;12;11;
64138;PMS5003;50435;43.700;-79.318;2023-08-06T12:26:45;12;12;
64138;PMS5003;50435;43.700;-79.318;2023-08-06T12:29:12;14;13;
64138;PMS5003;50435;43.700;-79.318;2023-08-06T12:31:40;15;12;
64138;PMS5003;50435;43.700;-79.318;2023-08-06T12:34:08;16;14;
64138;PMS5003;50435;43.700;-79.318;2023-08-06T12:36:36;15;13;
64138;PMS5003;50435;43.700;-79.318;2023-08-06T12:39:03;13;13;
64138;PMS5003;50435;43.700;-79.318;2023-08-06T12:41:31;11;11;
64138;PMS5003;50435;43.700;-79.318;2023-08-06T12:43:59;14;11;
64138;PMS5003;50435;43.700;-79.318;2023-08-06T12:46:26;13;12;
64138;PMS5003;50435;43.700;-79.318;2023-08-06T12:48:54;17;16;
64138;PMS5003;50435;43.700;-79.318;2023-08-06T12:51:22;13;12;
64138;PMS5003;50435;43.700;-79.318;2023-08-06T12:53:50;11;10;
64138;PMS5003;50435;43.700;-79.318;2023-08-06T12:56:17;13;12;
64138;PMS5003;50435;43.700;-79.318;2023-08-06T12:58:45;15;14;
64138;PMS5003;50435;43.700;-79.318;2023-08-06T13:01:12;12;11;
64138;PMS5003;50435;43.700;-79.318;2023-08-06T13:03:40;14;14;
64138;PMS5003;50435;43.700;-79.318;2023-08-06T13:06:08;12;12;
64138;PMS5003;50435;43.700;-79.318;2023-08-06T13:08:36;14;14;
64138;PMS5003;50435;43.700;-79.318;2023-08-06T13:11:03;11;11;
64138;PMS5003;50435;43.700;-79.318;2023-08-06T13:13:31;13;13;
64138;PMS5003;50435;43.700;-79.318;2023-08-06T13:15:58;14;12;
64138;PMS5003;50435;43.700;-79.318;2023-08-06T13:18:26;12;12;
64138;PMS5003;50435;43.700;-79.318;2023-08-06T13:20:54;13;11;
64138;PMS5003;50435;43.700;-79.318;2023-08-06T13:23:21;14;13;
64138;PMS5003;50435;43.700;-79.318;2023-08-06T13:25:48;12;11;
64138;PMS5003;50435;43.700;-79.318;2023-08-06T13:28:16;13;13;
64138;PMS5003;50435;43.700;-79.318;2023-08-06T13:30:43;15;12;
64138;PMS5003;50435;43.700;-79.318;2023-08-06T13:33:11;13;13;
64138;PMS5003;50435;43.700;-79.318;2023-08-06T13:35:39;14;12;
64138;PMS5003;50435;43.700;-79.318;2023-08-06T13:38:06;15;13;
64138;PMS5003;50435;43.700;-79.318;2023-08-06T13:40:34;16;13;
64138;PMS5003;50435;43.700;-79.318;2023-08-06T13:43:02;14;14;
64138;PMS5003;50435;43.700;-79.318;2023-08-06T13:45:29;14;12;
64138;PMS5003;50435;43.700;-79.318;2023-08-06T13:47:57;15;15;
64138;PMS5003;50435;43.700;-79.318;2023-08-06T13:50:25;15;13;
64138;PMS5003;50435;43.700;-79.318;2023-08-06T13:52:52;16;13;
64138;PMS5003;50435;43.700;-79.318;2023-08-06T13:55:20;15;15;
64138;PMS5003;50435;43.700;-79.318;2023-08-06T13:57:48;14;11;
64138;PMS5003;50435;43.700;-79.318;2023-08-06T14:00:15;17;17;
64138;PMS5003;50435;43.700;-79.318;2023-08-06T14:02:43;12;12;
64138;PMS5003;50435;43.700;-79.318;2023-08-06T14:05:10;14;11;
64138;PMS5003;50435;43.700;-79.318;2023-08-06T14:07:38;19;16;
64138;PMS5003;50435;43.700;-79.318;2023-08-06T14:10:06;13;12;
64138;PMS5003;50435;43.700;-79.318;2023-08-06T14:12:34;14;14;
64138;PMS5003;50435;43.700;-79.318;2023-08-06T14:15:02;14;13;
64138;PMS5003;50435;43.700;-79.318;2023-08-06T14:17:30;14;14;
64138;PMS5003;50435;43.700;-79.318;2023-08-06T14:19:57;14;13;
64138;PMS5003;50435;43.700;-79.318;2023-08-06T14:22:24;14;13;
64138;PMS5003;50435;43.700;-79.318;2023-08-06T14:24:51;15;13;
64138;PMS5003;50435;43.700;-79.318;2023-08-06T14:27:19;17;16;
64138;PMS5003;50435;43.700;-79.318;2023-08-06T14:29:46;16;15;
64138;PMS5003;50435;43.700;-79.318;2023-08-06T14:32:14;14;13;
64138;PMS5003;50435;43.700;-79.318;2023-08-06T14:34:41;16;13;
64138;PMS5003;50435;43.700;-79.318;2023-08-06T14:37:09;15;14;
64138;PMS5003;50435;43.700;-79.318;2023-08-06T14:39:36;14;12;
64138;PMS5003;50435;43.700;-79.318;2023-08-06T14:42:04;16;16;
64138;PMS5003;50435;43.700;-79.318;2023-08-06T14:44:32;14;14;
64138;PMS5003;50435;43.700;-79.318;2023-08-06T14:47:00;21;17;
64138;PMS5003;50435;43.700;-79.318;2023-08-06T14:49:27;18;17;
64138;PMS5003;50435;43.700;-79.318;2023-08-06T14:51:55;13;13;
64138;PMS5003;50435;43.700;-79.318;2023-08-06T14:54:22;20;16;
64138;PMS5003;50435;43.700;-79.318;2023-08-06T14:56:49;17;17;
64138;PMS5003;50435;43.700;-79.318;2023-08-06T14:59:17;13;12;
64138;PMS5003;50435;43.700;-79.318;2023-08-06T15:01:45;15;15;
64138;PMS5003;50435;43.700;-79.318;2023-08-06T15:04:12;18;15;
64138;PMS5003;50435;43.700;-79.318;2023-08-06T15:06:40;18;17;
64138;PMS5003;50435;43.700;-79.318;2023-08-06T15:09:07;16;14;
64138;PMS5003;50435;43.700;-79.318;2023-08-06T15:11:34;16;15;
64138;PMS5003;50435;43.700;-79.318;2023-08-06T15:14:02;16;15;
64138;PMS5003;50435;43.700;-79.318;2023-08-06T15:16:30;15;15;
64138;PMS5003;50435;43.700;-79.318;2023-08-06T15:18:58;14;13;
64138;PMS5003;50435;43.700;-79.318;2023-08-06T15:21:25;15;13;
64138;PMS5003;50435;43.700;-79.318;2023-08-06T15:23:52;16;14;
64138;PMS5003;50435;43.700;-79.318;2023-08-06T15:26:20;11;11;
64138;PMS5003;50435;43.700;-79.318;2023-08-06T15:28:48;15;15;
64138;PMS5003;50435;43.700;-79.318;2023-08-06T15:31:15;15;15;
64138;PMS5003;50435;43.700;-79.318;2023-08-06T15:33:46;18;17;
64138;PMS5003;50435;43.700;-79.318;2023-08-06T15:36:14;21;16;
64138;PMS5003;50435;43.700;-79.318;2023-08-06T15:38:42;14;13;
64138;PMS5003;50435;43.700;-79.318;2023-08-06T15:41:10;16;15;
64138;PMS5003;50435;43.700;-79.318;2023-08-06T15:43:37;14;14;
64138;PMS5003;50435;43.700;-79.318;2023-08-06T15:46:05;18;13;
64138;PMS5003;50435;43.700;-79.318;2023-08-06T15:48:32;18;16;
64138;PMS5003;50435;43.700;-79.318;2023-08-06T15:50:59;17;13;
64138;PMS5003;50435;43.700;-79.318;2023-08-06T15:53:27;17;12;